Time;durP1;ratioP1;P1;durP2;ratioP2;P2;SDS_P1;SDS_P2;PMS_P1;PMS_P2;Temp;Humidity;BMP_temperature;BMP_pressure;BME280_temperature;BME280_humidity;BME280_pressure;Samples;Min_cycle;Max_cycle;Signal;HPM_P1;HPM_P2
2022/02/12 03:27:10;;;;;;;1.20;1.20;;;;;;;;;;6241161;23;20531;-69
2022/02/12 03:29:36;;;;;;;2.90;1.70;;;;;;;;;;6242094;23;20042;-69
2022/02/12 03:32:02;;;;;;;1.95;1.75;;;;;;;;;;6242783;23;20015;-69
2022/02/12 03:34:28;;;;;;;2.92;2.22;;;;;;;;;;6241969;23;20347;-69
2022/02/12 03:36:54;;;;;;;2.38;2.03;;;;;;;;;;6242444;23;20087;-69
2022/02/12 03:39:19;;;;;;;4.13;1.80;;;;;;;;;;6242207;23;20012;-68
2022/02/12 03:41:46;;;;;;;6.35;1.95;;;;;;;;;;6241897;23;20052;-69
2022/02/12 03:44:11;;;;;;;3.03;2.00;;;;;;;;;;6242393;23;20058;-70
2022/02/12 03:46:37;;;;;;;4.22;2.03;;;;;;;;;;6242156;23;20044;-69
2022/02/12 03:49:05;;;;;;;3.45;2.05;;;;;;;;;;6242383;23;20456;-69
2022/02/12 03:51:31;;;;;;;4.07;2.30;;;;;;;;;;6242158;23;20012;-69
2022/02/12 03:53:57;;;;;;;3.70;1.63;;;;;;;;;;6242414;23;20093;-69
2022/02/12 03:56:23;;;;;;;6.13;2.60;;;;;;;;;;6242585;23;20538;-69
2022/02/12 03:58:49;;;;;;;1.83;1.73;;;;;;;;;;6215516;23;20399;-69
2022/02/12 04:01:14;;;;;;;5.72;2.08;;;;;;;;;;6215329;23;20027;-69
2022/02/12 04:03:42;;;;;;;7.53;2.22;;;;;;;;;;6241788;23;20026;-69
2022/02/12 04:06:08;;;;;;;2.05;1.95;;;;;;;;;;6242432;23;20427;-69
2022/02/12 04:08:34;;;;;;;1.60;1.50;;;;;;;;;;6241872;23;20016;-69
2022/02/12 04:11:00;;;;;;;4.90;1.92;;;;;;;;;;6242296;23;20027;-69
2022/02/12 04:13:25;;;;;;;2.30;1.95;;;;;;;;;;6242015;23;20016;-69
2022/02/12 04:15:52;;;;;;;3.20;2.38;;;;;;;;;;6242616;23;20023;-69
2022/02/12 04:18:18;;;;;;;2.63;2.42;;;;;;;;;;6215725;23;20012;-69
2022/02/12 04:20:44;;;;;;;4.88;2.63;;;;;;;;;;6242047;23;20022;-71
2022/02/12 04:23:10;;;;;;;3.45;2.60;;;;;;;;;;6242022;23;20031;-69
2022/02/12 04:25:36;;;;;;;5.20;2.65;;;;;;;;;;6241504;23;20019;-68
2022/02/12 04:28:03;;;;;;;2.33;2.15;;;;;;;;;;6215611;23;20016;-70
2022/02/12 04:30:29;;;;;;;2.55;2.20;;;;;;;;;;6241516;23;20012;-68
2022/02/12 04:32:55;;;;;;;5.75;2.38;;;;;;;;;;6215244;23;20020;-69
2022/02/12 04:35:20;;;;;;;4.40;2.53;;;;;;;;;;6241995;23;20008;-70
2022/02/12 04:37:47;;;;;;;6.05;2.05;;;;;;;;;;6240999;23;20019;-70
2022/02/12 04:40:13;;;;;;;6.75;3.08;;;;;;;;;;6241981;23;20035;-69
2022/02/12 04:42:39;;;;;;;3.53;2.80;;;;;;;;;;6241764;23;20058;-69
2022/02/12 04:45:05;;;;;;;4.85;2.28;;;;;;;;;;6241672;23;20016;-69
2022/02/12 04:47:32;;;;;;;3.45;3.08;;;;;;;;;;6241597;23;20020;-70
2022/02/12 04:49:57;;;;;;;15.50;3.20;;;;;;;;;;6241502;23;20008;-68
2022/02/12 04:52:23;;;;;;;4.53;2.38;;;;;;;;;;6241924;23;20078;-70
2022/02/12 04:54:49;;;;;;;4.28;2.80;;;;;;;;;;6214524;23;20008;-70
2022/02/12 04:57:15;;;;;;;4.70;2.60;;;;;;;;;;6241928;23;20020;-69
2022/02/12 04:59:41;;;;;;;6.05;2.80;;;;;;;;;;6241564;23;20348;-70
2022/02/12 05:02:06;;;;;;;6.93;2.90;;;;;;;;;;6241755;23;20098;-69
2022/02/12 05:04:32;;;;;;;3.22;2.75;;;;;;;;;;6241472;23;20092;-68
2022/02/12 05:06:59;;;;;;;3.78;2.05;;;;;;;;;;6242010;23;20478;-68
2022/02/12 05:09:25;;;;;;;2.20;2.00;;;;;;;;;;6242091;23;20186;-70
2022/02/12 05:11:51;;;;;;;4.13;2.92;;;;;;;;;;6242538;23;20340;-67
2022/02/12 05:14:17;;;;;;;5.32;2.80;;;;;;;;;;6242703;23;20036;-69
2022/02/12 05:16:42;;;;;;;2.60;2.40;;;;;;;;;;6241708;23;20008;-70
2022/02/12 05:19:08;;;;;;;6.93;3.30;;;;;;;;;;6215454;23;20012;-68
2022/02/12 05:21:34;;;;;;;5.25;2.53;;;;;;;;;;6242030;23;20012;-68
2022/02/12 05:24:00;;;;;;;7.25;3.13;;;;;;;;;;6241879;23;20039;-70
2022/02/12 05:26:27;;;;;;;2.28;1.65;;;;;;;;;;6190518;23;20472;-68
2022/02/12 05:28:53;;;;;;;7.63;3.30;;;;;;;;;;6240252;23;20019;-71
2022/02/12 05:31:19;;;;;;;9.80;3.28;;;;;;;;;;6241742;23;20010;-72
2022/02/12 05:33:45;;;;;;;3.17;2.88;;;;;;;;;;6214254;23;20051;-70
2022/02/12 05:36:11;;;;;;;2.70;2.50;;;;;;;;;;6241538;23;20078;-71
2022/02/12 05:38:39;;;;;;;2.83;1.58;;;;;;;;;;6241133;23;20054;-72
2022/02/12 05:41:08;;;;;;;4.53;3.03;;;;;;;;;;6214976;23;20012;-72
2022/02/12 05:43:34;;;;;;;4.50;2.17;;;;;;;;;;6241318;23;20044;-71
2022/02/12 05:46:00;;;;;;;6.07;3.47;;;;;;;;;;6215074;23;20022;-71
2022/02/12 05:48:26;;;;;;;4.97;3.15;;;;;;;;;;6241878;23;20100;-71
2022/02/12 05:50:53;;;;;;;3.75;3.03;;;;;;;;;;6241198;23;20008;-69
2022/02/12 05:53:19;;;;;;;5.38;4.30;;;;;;;;;;6214865;23;20091;-71
2022/02/12 05:55:45;;;;;;;4.00;3.55;;;;;;;;;;6207916;23;20051;-70
2022/02/12 05:58:11;;;;;;;9.80;3.03;;;;;;;;;;6239997;23;20454;-71
2022/02/12 06:00:38;;;;;;;4.45;3.47;;;;;;;;;;6212835;23;20110;-71
2022/02/12 06:03:05;;;;;;;7.70;2.53;;;;;;;;;;6215404;23;20020;-70
2022/02/12 06:05:31;;;;;;;18.98;4.97;;;;;;;;;;6189841;23;20012;-70
2022/02/12 06:07:59;;;;;;;11.07;2.63;;;;;;;;;;6241729;23;20044;-72
2022/02/12 06:10:26;;;;;;;5.32;3.28;;;;;;;;;;6215595;23;20012;-70
2022/02/12 06:12:52;;;;;;;13.90;3.80;;;;;;;;;;6215024;23;20012;-70
2022/02/12 06:15:18;;;;;;;5.88;4.07;;;;;;;;;;6241769;23;20028;-70
2022/02/12 06:17:44;;;;;;;7.13;4.63;;;;;;;;;;6214997;23;20019;-70
2022/02/12 06:20:10;;;;;;;6.10;3.97;;;;;;;;;;6242011;23;20039;-71
2022/02/12 06:22:36;;;;;;;5.80;3.95;;;;;;;;;;6214919;23;20019;-70
2022/02/12 06:25:02;;;;;;;3.92;3.13;;;;;;;;;;6241578;23;20019;-71
2022/02/12 06:27:29;;;;;;;3.67;3.33;;;;;;;;;;6190536;23;20044;-70
2022/02/12 06:29:55;;;;;;;4.97;3.13;;;;;;;;;;6241139;23;20066;-70
2022/02/12 06:32:21;;;;;;;3.13;2.35;;;;;;;;;;6215183;23;20070;-70
2022/02/12 06:34:46;;;;;;;1.55;1.55;;;;;;;;;;6240778;23;20008;-71
2022/02/12 06:37:12;;;;;;;2.28;2.15;;;;;;;;;;6241632;23;20053;-71
2022/02/12 06:39:38;;;;;;;8.05;2.08;;;;;;;;;;6241103;23;20520;-70
2022/02/12 06:42:04;;;;;;;4.85;3.13;;;;;;;;;;6214792;23;20091;-71
2022/02/12 06:44:30;;;;;;;2.30;2.10;;;;;;;;;;6214898;23;20446;-70
2022/02/12 06:46:56;;;;;;;5.47;2.35;;;;;;;;;;6241700;23;20042;-72
2022/02/12 06:49:23;;;;;;;3.83;2.40;;;;;;;;;;6214632;23;20039;-72
2022/02/12 06:51:49;;;;;;;2.95;1.95;;;;;;;;;;6240407;23;20016;-72
2022/02/12 06:54:15;;;;;;;1.77;1.60;;;;;;;;;;6239431;23;20012;-71
2022/02/12 06:56:41;;;;;;;1.70;1.60;;;;;;;;;;6241355;23;20014;-72
2022/02/12 06:59:08;;;;;;;1.73;1.63;;;;;;;;;;6240572;23;20357;-71
2022/02/12 07:01:35;;;;;;;2.28;2.00;;;;;;;;;;6241161;23;20354;-72
2022/02/12 07:04:01;;;;;;;2.80;2.60;;;;;;;;;;6214756;23;20420;-72
2022/02/12 07:06:27;;;;;;;1.70;1.60;;;;;;;;;;6241478;23;20008;-72
2022/02/12 07:08:53;;;;;;;3.30;2.13;;;;;;;;;;6241439;23;20016;-71
2022/02/12 07:11:19;;;;;;;1.60;1.35;;;;;;;;;;6214992;23;20015;-72
2022/02/12 07:13:45;;;;;;;3.17;2.13;;;;;;;;;;6241184;23;20039;-71
2022/02/12 07:16:11;;;;;;;2.15;1.65;;;;;;;;;;6241602;23;20023;-72
2022/02/12 07:18:37;;;;;;;3.10;1.60;;;;;;;;;;6241259;23;20004;-71
2022/02/12 07:21:04;;;;;;;1.70;1.60;;;;;;;;;;6214692;23;20042;-71
2022/02/12 07:23:29;;;;;;;2.03;1.75;;;;;;;;;;6241494;23;20590;-71
2022/02/12 07:25:55;;;;;;;2.92;2.10;;;;;;;;;;6240949;23;20047;-75
2022/02/12 07:28:21;;;;;;;1.55;1.45;;;;;;;;;;6241437;23;20019;-72
2022/02/12 07:30:49;;;;;;;2.30;2.10;;;;;;;;;;6240643;22;20015;-72
2022/02/12 07:33:15;;;;;;;3.28;2.33;;;;;;;;;;6241127;23;20058;-72
2022/02/12 07:35:41;;;;;;;2.35;2.15;;;;;;;;;;6240815;22;20018;-71
2022/02/12 07:38:07;;;;;;;2.70;1.98;;;;;;;;;;6241427;23;20091;-71
2022/02/12 07:40:33;;;;;;;2.60;2.17;;;;;;;;;;6214299;23;20012;-72
2022/02/12 07:42:59;;;;;;;2.38;2.17;;;;;;;;;;6214499;23;20054;-72
2022/02/12 07:45:25;;;;;;;1.77;1.67;;;;;;;;;;6240023;23;20023;-72
2022/02/12 07:47:54;;;;;;;1.88;1.77;;;;;;;;;;6239221;23;20016;-71
2022/02/12 07:50:20;;;;;;;1.85;1.75;;;;;;;;;;6240990;23;20020;-72
2022/02/12 07:52:45;;;;;;;2.42;2.08;;;;;;;;;;6240739;23;20020;-72
2022/02/12 07:55:12;;;;;;;2.28;2.08;;;;;;;;;;6240625;23;20005;-72
2022/02/12 07:57:38;;;;;;;3.60;2.25;;;;;;;;;;6240828;23;20016;-72
2022/02/12 08:00:05;;;;;;;2.10;1.90;;;;;;;;;;6240802;23;20062;-72
2022/02/12 08:02:37;;;;;;;5.72;2.03;;;;;;;;;;6215445;23;20031;-73
2022/02/12 08:05:03;;;;;;;1.73;1.73;;;;;;;;;;6213742;23;20015;-73
2022/02/12 08:07:29;;;;;;;1.50;1.50;;;;;;;;;;6212978;23;20016;-73
2022/02/12 08:11:22;;;;;;;2.05;1.52;;;;;;;;;;6240538;23;20095;-72
2022/02/12 08:12:51;;;;;;;1.52;1.52;;;;;;;;;;6239027;23;20014;-72
2022/02/12 08:15:17;;;;;;;2.10;2.00;;;;;;;;;;6240794;23;20420;-72
2022/02/12 08:17:43;;;;;;;1.90;1.70;;;;;;;;;;6211794;23;20019;-71
2022/02/12 08:20:10;;;;;;;2.45;2.25;;;;;;;;;;6240918;23;20016;-71
2022/02/12 08:22:36;;;;;;;4.90;1.95;;;;;;;;;;6241355;23;20714;-72
2022/02/12 08:25:03;;;;;;;2.42;2.08;;;;;;;;;;6240922;23;20008;-72
2022/02/12 08:27:29;;;;;;;2.55;2.22;;;;;;;;;;6213071;23;20036;-71
2022/02/12 08:29:55;;;;;;;2.90;2.03;;;;;;;;;;6211604;23;20014;-72
2022/02/12 08:32:21;;;;;;;1.75;1.30;;;;;;;;;;6238543;23;20472;-71
2022/02/12 08:34:47;;;;;;;1.63;1.50;;;;;;;;;;6211836;23;20012;-71
2022/02/12 08:37:14;;;;;;;9.65;1.90;;;;;;;;;;6239482;23;20008;-72
2022/02/12 08:39:39;;;;;;;2.20;2.08;;;;;;;;;;6212793;23;20087;-71
2022/02/12 08:42:06;;;;;;;1.35;1.35;;;;;;;;;;6240475;23;20047;-71
2022/02/12 08:44:33;;;;;;;1.80;1.67;;;;;;;;;;6239900;23;20504;-71
2022/02/12 08:46:59;;;;;;;4.55;1.90;;;;;;;;;;6239888;23;20019;-72
2022/02/12 08:49:25;;;;;;;1.42;1.42;;;;;;;;;;6240443;22;20020;-72
2022/02/12 08:51:51;;;;;;;4.95;1.98;;;;;;;;;;6240135;23;20530;-71
2022/02/12 08:54:17;;;;;;;2.30;1.73;;;;;;;;;;6238729;23;20012;-72
2022/02/12 08:56:43;;;;;;;1.52;1.45;;;;;;;;;;6212923;23;20078;-73
2022/02/12 08:59:09;;;;;;;2.05;1.92;;;;;;;;;;6240193;23;20044;-72
2022/02/12 09:01:37;;;;;;;1.92;1.80;;;;;;;;;;6213408;23;20013;-72
2022/02/12 09:04:07;;;;;;;2.35;1.70;;;;;;;;;;6240544;23;20016;-72
2022/02/12 09:06:32;;;;;;;5.72;1.90;;;;;;;;;;6239975;23;20008;-73
2022/02/12 09:08:58;;;;;;;1.67;1.58;;;;;;;;;;6239453;23;20016;-72
2022/02/12 09:11:25;;;;;;;2.67;1.65;;;;;;;;;;6212434;23;20012;-72
2022/02/12 09:13:52;;;;;;;2.85;2.03;;;;;;;;;;6239502;23;20008;-71
2022/02/12 09:16:18;;;;;;;4.30;2.20;;;;;;;;;;6238853;23;20023;-72
2022/02/12 09:18:44;;;;;;;1.90;1.80;;;;;;;;;;6239018;23;20016;-71
2022/02/12 09:21:10;;;;;;;3.05;2.67;;;;;;;;;;6240045;23;20612;-71
2022/02/12 09:23:35;;;;;;;3.85;2.20;;;;;;;;;;6212299;23;20028;-71
2022/02/12 09:26:01;;;;;;;2.63;2.20;;;;;;;;;;6238911;23;20016;-72
2022/02/12 09:28:27;;;;;;;4.28;3.15;;;;;;;;;;6212154;23;20015;-72
2022/02/12 09:30:53;;;;;;;2.47;2.20;;;;;;;;;;6237987;23;20032;-72
2022/02/12 09:33:19;;;;;;;2.30;2.10;;;;;;;;;;6238246;23;20361;-72
2022/02/12 09:35:47;;;;;;;7.32;2.45;;;;;;;;;;6239115;23;20023;-72
2022/02/12 09:38:13;;;;;;;2.30;2.10;;;;;;;;;;6240443;23;20092;-72
2022/02/12 09:40:39;;;;;;;2.17;2.00;;;;;;;;;;6240158;23;20040;-72
2022/02/12 09:43:05;;;;;;;2.00;1.90;;;;;;;;;;6214112;23;20019;-72
2022/02/12 09:45:42;;;;;;;1.95;1.85;;;;;;;;;;6213373;23;20095;-73
2022/02/12 09:48:10;;;;;;;2.35;2.20;;;;;;;;;;6241604;23;20100;-72
2022/02/12 09:50:36;;;;;;;3.58;2.55;;;;;;;;;;6240600;23;20562;-72
2022/02/12 09:53:02;;;;;;;2.47;2.28;;;;;;;;;;6215284;23;20087;-72
2022/02/12 09:55:30;;;;;;;2.95;2.60;;;;;;;;;;6215393;23;20040;-72
2022/02/12 09:57:56;;;;;;;2.38;2.20;;;;;;;;;;6241394;23;20055;-72
2022/02/12 10:00:21;;;;;;;2.90;2.50;;;;;;;;;;6214355;23;20008;-72
2022/02/12 10:02:47;;;;;;;2.88;2.60;;;;;;;;;;6240389;23;20022;-72
2022/02/12 10:05:20;;;;;;;2.88;2.67;;;;;;;;;;6240717;23;20012;-71
2022/02/12 10:07:49;;;;;;;2.63;2.33;;;;;;;;;;6240552;23;20524;-72
2022/02/12 10:10:16;;;;;;;5.13;2.65;;;;;;;;;;6240583;23;20008;-72
2022/02/12 10:12:42;;;;;;;3.17;2.58;;;;;;;;;;6213163;23;20008;-72
2022/02/12 10:15:12;;;;;;;3.45;2.92;;;;;;;;;;6189135;23;20012;-72
2022/02/12 10:17:49;;;;;;;1.90;1.80;;;;;;;;;;6240339;23;20061;-73
2022/02/12 10:20:34;;;;;;;1.83;1.73;;;;;;;;;;6213971;23;20012;-72
2022/02/12 10:23:16;;;;;;;1.73;1.63;;;;;;;;;;6240617;23;20664;-73
2022/02/12 10:25:45;;;;;;;1.58;1.48;;;;;;;;;;6240109;23;20016;-72
2022/02/12 10:28:12;;;;;;;1.63;1.52;;;;;;;;;;6188678;23;20020;-73
2022/02/12 10:30:38;;;;;;;2.33;2.05;;;;;;;;;;6240044;23;20008;-72
2022/02/12 10:33:05;;;;;;;1.95;1.80;;;;;;;;;;6188381;23;20055;-73
2022/02/12 10:35:31;;;;;;;1.52;1.42;;;;;;;;;;6240047;23;20456;-73
2022/02/12 10:38:00;;;;;;;1.42;1.33;;;;;;;;;;6240493;23;20089;-71
2022/02/12 10:40:26;;;;;;;1.63;1.52;;;;;;;;;;6240584;23;20012;-73
2022/02/12 10:42:52;;;;;;;1.63;1.52;;;;;;;;;;6240075;23;20027;-72
2022/02/12 10:45:18;;;;;;;2.65;1.83;;;;;;;;;;6240391;23;20344;-72
2022/02/12 10:47:44;;;;;;;1.63;1.52;;;;;;;;;;6240034;23;20016;-72
2022/02/12 10:50:10;;;;;;;1.70;1.60;;;;;;;;;;6240123;23;20012;-71
2022/02/12 10:52:39;;;;;;;1.50;1.40;;;;;;;;;;6213661;23;20475;-72
2022/02/12 10:55:06;;;;;;;1.67;1.55;;;;;;;;;;6240398;23;20036;-71
2022/02/12 10:57:38;;;;;;;1.50;1.50;;;;;;;;;;6240051;23;20019;-71
2022/02/12 11:00:07;;;;;;;1.15;1.15;;;;;;;;;;6189761;23;20565;-72
2022/02/12 11:02:34;;;;;;;2.22;2.08;;;;;;;;;;6236974;23;20467;-72
2022/02/12 11:05:00;;;;;;;1.35;1.30;;;;;;;;;;6239722;22;20102;-72
2022/02/12 11:07:26;;;;;;;1.30;1.30;;;;;;;;;;6241318;23;20043;-72
2022/02/12 11:09:52;;;;;;;1.40;1.30;;;;;;;;;;6238364;23;20042;-71
2022/02/12 11:12:18;;;;;;;1.30;1.30;;;;;;;;;;6184348;23;20364;-71
2022/02/12 11:14:44;;;;;;;0.82;0.82;;;;;;;;;;6188968;23;20014;-72
2022/02/12 11:17:18;;;;;;;1.48;1.38;;;;;;;;;;6214495;23;20522;-72
2022/02/12 11:19:44;;;;;;;1.63;1.30;;;;;;;;;;6240007;23;20012;-73
2022/02/12 11:22:10;;;;;;;1.58;1.58;;;;;;;;;;6241224;23;20051;-71
2022/02/12 11:24:37;;;;;;;0.88;0.88;;;;;;;;;;6240804;23;20114;-71
2022/02/12 11:27:16;;;;;;;2.15;1.48;;;;;;;;;;6210732;23;20075;-71
2022/02/12 11:29:44;;;;;;;1.00;1.00;;;;;;;;;;6210665;23;20016;-71
2022/02/12 11:32:11;;;;;;;0.93;0.93;;;;;;;;;;6211027;23;20013;-71
2022/02/12 11:34:41;;;;;;;1.90;1.60;;;;;;;;;;6209244;23;20009;-72
2022/02/12 11:37:14;;;;;;;0.98;0.98;;;;;;;;;;6211034;23;20453;-71
2022/02/12 11:39:40;;;;;;;1.27;1.27;;;;;;;;;;6210651;23;20480;-72
2022/02/12 11:42:07;;;;;;;1.30;1.20;;;;;;;;;;6210484;23;20147;-72
2022/02/12 11:44:46;;;;;;;1.73;1.58;;;;;;;;;;6208906;23;20016;-71
2022/02/12 11:47:12;;;;;;;1.52;1.48;;;;;;;;;;6209042;23;20052;-71
2022/02/12 11:49:38;;;;;;;1.98;1.55;;;;;;;;;;6207632;23;20090;-72
2022/02/12 11:52:24;;;;;;;1.23;1.13;;;;;;;;;;6209778;23;20012;-72
2022/02/12 11:54:57;;;;;;;1.10;1.10;;;;;;;;;;6148685;23;20146;-72
2022/02/12 11:57:25;;;;;;;3.30;1.80;;;;;;;;;;6210503;23;20059;-72
2022/02/12 11:59:51;;;;;;;2.58;1.60;;;;;;;;;;6209800;23;20043;-72
2022/02/12 12:02:36;;;;;;;1.38;1.35;;;;;;;;;;6207229;23;20031;-72
2022/02/12 12:05:12;;;;;;;1.30;1.30;;;;;;;;;;6208373;23;20013;-72
2022/02/12 12:07:57;;;;;;;1.30;1.20;;;;;;;;;;6207733;23;20061;-71
2022/02/12 12:10:23;;;;;;;1.63;1.52;;;;;;;;;;6207070;23;20020;-71
2022/02/12 12:12:49;;;;;;;1.80;1.70;;;;;;;;;;6209272;23;20009;-71
2022/02/12 12:15:15;;;;;;;2.20;1.45;;;;;;;;;;6208063;23;20440;-71
2022/02/12 12:17:42;;;;;;;1.77;1.67;;;;;;;;;;6208661;23;20014;-71
2022/02/12 12:20:10;;;;;;;1.42;1.40;;;;;;;;;;6209814;23;20012;-72
2022/02/12 12:22:36;;;;;;;1.65;1.55;;;;;;;;;;6208975;23;20078;-72
2022/02/12 12:25:02;;;;;;;1.10;1.10;;;;;;;;;;6209720;23;20095;-72
2022/02/12 12:27:31;;;;;;;1.60;1.50;;;;;;;;;;6237921;23;20478;-72
2022/02/12 12:32:57;;;;;;;7.40;1.58;;;;;;;;;;6239965;23;20012;-72
2022/02/12 12:35:23;;;;;;;1.40;1.40;;;;;;;;;;6213162;23;20008;-71
2022/02/12 12:37:53;;;;;;;1.38;1.30;;;;;;;;;;6187571;23;20341;-72
2022/02/12 12:40:29;;;;;;;1.00;1.00;;;;;;;;;;6187480;23;20015;-72
2022/02/12 12:42:59;;;;;;;2.60;1.50;;;;;;;;;;6239756;23;20023;-72
2022/02/12 12:45:25;;;;;;;1.77;1.67;;;;;;;;;;6240067;23;20016;-72
2022/02/12 12:47:51;;;;;;;3.15;1.48;;;;;;;;;;6239410;23;20019;-72
2022/02/12 12:50:17;;;;;;;1.30;1.20;;;;;;;;;;6237206;23;20050;-72
2022/02/12 12:52:43;;;;;;;5.68;1.73;;;;;;;;;;6238558;23;20012;-72
2022/02/12 12:55:10;;;;;;;1.58;1.48;;;;;;;;;;6239730;23;20359;-72
2022/02/12 12:57:40;;;;;;;1.40;1.30;;;;;;;;;;6238416;23;20480;-71
2022/02/12 13:00:07;;;;;;;1.25;1.23;;;;;;;;;;6239784;23;20016;-70
2022/02/12 13:02:38;;;;;;;1.02;1.02;;;;;;;;;;6187009;23;20020;-71
2022/02/12 13:05:04;;;;;;;1.95;1.88;;;;;;;;;;6240066;23;20020;-72
2022/02/12 13:07:31;;;;;;;1.58;1.55;;;;;;;;;;6212926;23;20096;-71
2022/02/12 13:09:59;;;;;;;1.67;1.58;;;;;;;;;;6240514;23;20019;-70
2022/02/12 13:12:38;;;;;;;1.33;1.23;;;;;;;;;;6242326;23;20018;-71
2022/02/12 13:15:08;;;;;;;1.70;1.60;;;;;;;;;;6241216;23;20686;-71
2022/02/12 13:17:43;;;;;;;1.33;1.33;;;;;;;;;;6215376;23;20059;-71
2022/02/12 13:20:11;;;;;;;3.22;1.40;;;;;;;;;;6241260;23;20664;-71
2022/02/12 13:22:37;;;;;;;1.15;1.10;;;;;;;;;;6241523;23;20107;-71
2022/02/12 13:25:10;;;;;;;1.73;1.63;;;;;;;;;;6241852;23;20008;-70
2022/02/12 13:27:37;;;;;;;1.13;1.13;;;;;;;;;;6241270;23;20019;-71
2022/02/12 13:30:03;;;;;;;1.65;1.55;;;;;;;;;;6241976;23;20034;-71
2022/02/12 13:32:43;;;;;;;1.65;1.30;;;;;;;;;;6190363;23;20012;-70
2022/02/12 13:35:09;;;;;;;0.93;0.93;;;;;;;;;;6242496;23;20018;-70
2022/02/12 13:37:37;;;;;;;4.35;1.20;;;;;;;;;;6242773;23;20019;-71
2022/02/12 13:40:05;;;;;;;1.70;1.60;;;;;;;;;;6241364;23;20008;-71
2022/02/12 13:42:31;;;;;;;1.20;1.20;;;;;;;;;;6242027;23;20028;-71
2022/02/12 13:45:00;;;;;;;1.10;1.10;;;;;;;;;;6189093;23;20016;-71
2022/02/12 13:47:26;;;;;;;1.35;1.25;;;;;;;;;;6215306;23;20016;-71
2022/02/12 13:49:54;;;;;;;1.35;1.33;;;;;;;;;;6241867;23;20008;-71
2022/02/12 13:52:20;;;;;;;1.50;1.40;;;;;;;;;;6214529;23;20016;-73
2022/02/12 13:54:59;;;;;;;1.67;1.58;;;;;;;;;;6241438;23;20016;-68
2022/02/12 13:57:25;;;;;;;1.73;1.63;;;;;;;;;;6215075;23;20019;-68
2022/02/12 13:59:50;;;;;;;10.18;1.63;;;;;;;;;;6241486;23;20373;-69
2022/02/12 14:02:16;;;;;;;1.40;1.30;;;;;;;;;;6214853;23;20016;-69
2022/02/12 14:04:42;;;;;;;5.05;1.77;;;;;;;;;;6212714;23;20121;-69
2022/02/12 14:07:09;;;;;;;1.70;1.60;;;;;;;;;;6214118;23;20019;-69
2022/02/12 14:09:34;;;;;;;1.30;1.30;;;;;;;;;;6241251;23;20012;-69
2022/02/12 14:12:00;;;;;;;2.10;1.50;;;;;;;;;;6241518;23;20012;-68
2022/02/12 14:14:26;;;;;;;1.00;1.00;;;;;;;;;;6240486;23;20115;-69
2022/02/12 14:16:52;;;;;;;1.77;1.67;;;;;;;;;;6239825;23;20088;-69
2022/02/12 14:19:18;;;;;;;5.43;1.90;;;;;;;;;;6241529;23;20039;-69
2022/02/12 14:21:44;;;;;;;1.23;1.13;;;;;;;;;;6239653;23;20023;-72
2022/02/12 14:24:10;;;;;;;2.30;1.05;;;;;;;;;;6240716;23;20027;-71
2022/02/12 14:26:36;;;;;;;1.20;1.20;;;;;;;;;;6240250;23;20020;-71
2022/02/12 14:29:02;;;;;;;2.78;1.52;;;;;;;;;;6164018;23;20092;-72
2022/02/12 14:31:28;;;;;;;1.55;1.45;;;;;;;;;;6241417;23;20043;-71
2022/02/12 15:21:39;;;;;;;1.45;1.35;;;;;;;;;;6241169;23;20011;-71
2022/02/12 15:24:07;;;;;;;1.17;1.17;;;;;;;;;;6241103;23;20075;-72
2022/02/12 15:26:36;;;;;;;2.95;1.80;;;;;;;;;;6212662;23;20107;-73
2022/02/12 15:29:02;;;;;;;1.48;1.38;;;;;;;;;;6236589;23;20090;-71
2022/02/12 15:31:28;;;;;;;1.25;1.25;;;;;;;;;;6212769;23;20035;-71
2022/02/12 15:33:54;;;;;;;1.10;1.10;;;;;;;;;;6240985;23;20008;-70
2022/02/12 15:36:20;;;;;;;1.23;1.23;;;;;;;;;;6241069;23;20024;-71
2022/02/12 15:38:46;;;;;;;3.53;1.70;;;;;;;;;;6213133;23;20020;-70
2022/02/12 15:41:14;;;;;;;1.33;1.23;;;;;;;;;;6239815;23;20341;-69
2022/02/12 15:43:41;;;;;;;1.45;1.35;;;;;;;;;;6212975;23;20024;-69
2022/02/12 15:46:07;;;;;;;1.30;1.20;;;;;;;;;;6213094;23;20012;-71
2022/02/12 15:48:33;;;;;;;1.10;1.10;;;;;;;;;;6239486;23;20012;-71
2022/02/12 15:51:00;;;;;;;1.42;1.38;;;;;;;;;;6213018;23;20011;-70
2022/02/12 15:53:28;;;;;;;1.65;1.55;;;;;;;;;;6238196;23;20047;-70
2022/02/12 15:55:55;;;;;;;1.40;1.30;;;;;;;;;;6237783;23;20012;-71
2022/02/12 15:58:21;;;;;;;3.05;1.55;;;;;;;;;;6238487;23;20096;-71
2022/02/12 16:00:47;;;;;;;2.13;2.03;;;;;;;;;;6237238;23;20039;-70
2022/02/12 16:03:13;;;;;;;2.85;1.92;;;;;;;;;;6237107;23;20028;-71
2022/02/12 16:05:40;;;;;;;1.20;1.20;;;;;;;;;;6235836;23;20004;-71
2022/02/12 16:08:05;;;;;;;2.00;1.50;;;;;;;;;;6210968;23;20112;-71
2022/02/12 16:10:31;;;;;;;3.60;1.70;;;;;;;;;;6238717;23;20099;-71
2022/02/12 16:13:01;;;;;;;1.95;1.55;;;;;;;;;;6240177;23;20048;-70
2022/02/12 16:15:27;;;;;;;1.40;1.30;;;;;;;;;;6240064;23;20012;-71
2022/02/12 16:17:53;;;;;;;2.25;1.90;;;;;;;;;;6237720;23;20036;-71
2022/02/12 16:20:20;;;;;;;1.33;1.27;;;;;;;;;;6240520;23;20011;-70
2022/02/12 16:22:47;;;;;;;1.50;1.40;;;;;;;;;;6212977;23;20111;-70
2022/02/12 16:25:13;;;;;;;1.75;1.58;;;;;;;;;;6239902;23;20070;-71
2022/02/12 16:27:39;;;;;;;1.60;1.50;;;;;;;;;;6213041;23;20012;-71
2022/02/12 16:30:05;;;;;;;1.35;1.25;;;;;;;;;;6239528;23;20012;-71
2022/02/12 16:32:31;;;;;;;1.42;1.40;;;;;;;;;;6239303;23;20793;-71
2022/02/12 16:34:57;;;;;;;3.47;2.33;;;;;;;;;;6240293;23;20012;-70
2022/02/12 16:37:23;;;;;;;1.13;1.13;;;;;;;;;;6240548;23;20419;-71
2022/02/12 16:39:49;;;;;;;1.42;1.42;;;;;;;;;;6213689;23;20014;-71
2022/02/12 16:42:15;;;;;;;4.63;1.80;;;;;;;;;;6239318;23;20020;-71
2022/02/12 16:44:41;;;;;;;2.20;2.00;;;;;;;;;;6212899;23;20022;-71
2022/02/12 16:47:09;;;;;;;2.45;2.25;;;;;;;;;;6212209;23;20042;-70
2022/02/12 16:49:39;;;;;;;2.00;1.90;;;;;;;;;;6188616;23;20016;-71
2022/02/12 16:52:06;;;;;;;3.05;1.80;;;;;;;;;;6240384;23;20012;-71
2022/02/12 16:54:31;;;;;;;3.08;2.13;;;;;;;;;;6239261;23;20040;-71
2022/02/12 16:56:58;;;;;;;2.22;2.03;;;;;;;;;;6213128;23;20012;-71
2022/02/12 16:59:24;;;;;;;2.17;2.08;;;;;;;;;;6240600;23;20103;-70
2022/02/12 17:01:50;;;;;;;5.13;2.35;;;;;;;;;;6240166;23;20008;-71
2022/02/12 17:04:16;;;;;;;2.58;2.38;;;;;;;;;;6213485;23;20070;-71
2022/02/12 17:06:42;;;;;;;2.65;1.70;;;;;;;;;;6239081;23;20012;-71
2022/02/12 17:09:08;;;;;;;1.35;1.35;;;;;;;;;;6240082;23;20109;-71
2022/02/12 17:11:34;;;;;;;2.33;2.17;;;;;;;;;;6238850;23;20015;-71
2022/02/12 17:14:00;;;;;;;2.47;2.28;;;;;;;;;;6240475;23;20008;-71
2022/02/12 17:16:26;;;;;;;1.90;1.80;;;;;;;;;;6240447;23;20027;-70
2022/02/12 17:18:53;;;;;;;1.80;1.75;;;;;;;;;;6212190;23;20004;-71
2022/02/12 17:21:20;;;;;;;2.45;2.25;;;;;;;;;;6188581;23;20107;-71
2022/02/12 17:23:47;;;;;;;1.95;1.85;;;;;;;;;;6239822;23;20031;-70
2022/02/12 17:26:13;;;;;;;3.47;1.75;;;;;;;;;;6212677;23;20016;-71
2022/02/12 17:28:40;;;;;;;1.67;1.58;;;;;;;;;;6238950;23;20012;-71
2022/02/12 17:31:06;;;;;;;1.98;1.73;;;;;;;;;;6238417;23;20013;-71
2022/02/12 17:33:32;;;;;;;5.47;2.20;;;;;;;;;;6239403;23;20027;-71
2022/02/12 17:35:58;;;;;;;2.08;1.98;;;;;;;;;;6239368;23;20018;-70
2022/02/12 17:38:24;;;;;;;6.03;2.15;;;;;;;;;;6239956;23;20012;-71
2022/02/12 17:40:50;;;;;;;1.40;1.40;;;;;;;;;;6188307;23;20044;-71
2022/02/12 17:43:16;;;;;;;4.32;1.98;;;;;;;;;;6239173;23;20034;-71
2022/02/12 17:45:43;;;;;;;2.10;2.00;;;;;;;;;;6240461;23;20083;-71
2022/02/12 17:48:09;;;;;;;1.90;1.80;;;;;;;;;;6240039;23;20078;-76
2022/02/12 17:50:35;;;;;;;1.50;1.50;;;;;;;;;;6240594;23;20394;-72
2022/02/12 17:53:01;;;;;;;5.85;2.13;;;;;;;;;;6240715;23;20070;-71
2022/02/12 17:55:28;;;;;;;2.08;1.55;;;;;;;;;;6239421;23;20008;-71
2022/02/12 17:57:57;;;;;;;1.95;1.80;;;;;;;;;;6241742;23;20016;-71
2022/02/12 18:00:24;;;;;;;3.67;2.25;;;;;;;;;;6216332;23;20014;-71
2022/02/12 18:02:50;;;;;;;2.15;2.05;;;;;;;;;;6213430;23;20744;-71
2022/02/12 18:05:15;;;;;;;4.07;2.80;;;;;;;;;;6214790;23;20083;-72
2022/02/12 18:07:41;;;;;;;2.50;2.30;;;;;;;;;;6241027;23;20016;-72
2022/02/12 18:10:07;;;;;;;2.55;2.17;;;;;;;;;;6241497;23;20008;-73
2022/02/12 18:12:34;;;;;;;2.95;2.70;;;;;;;;;;6241244;23;20012;-72
2022/02/12 18:15:00;;;;;;;2.42;2.33;;;;;;;;;;6241937;23;20081;-73
2022/02/12 18:17:26;;;;;;;1.70;1.60;;;;;;;;;;6241900;23;20020;-72
2022/02/12 18:19:52;;;;;;;2.60;2.40;;;;;;;;;;6240614;23;20464;-73
2022/02/12 18:22:18;;;;;;;3.13;2.83;;;;;;;;;;6212554;23;20023;-73
2022/02/12 18:24:44;;;;;;;3.30;2.78;;;;;;;;;;6243910;23;20012;-74
2022/02/12 18:27:10;;;;;;;3.25;2.85;;;;;;;;;;6243233;23;20073;-73
2022/02/12 18:29:39;;;;;;;7.05;3.10;;;;;;;;;;6243678;23;20023;-72
2022/02/12 18:32:06;;;;;;;3.17;2.90;;;;;;;;;;6243425;23;20008;-74
2022/02/12 18:34:32;;;;;;;5.03;2.60;;;;;;;;;;6243574;23;20047;-74
2022/02/12 18:36:58;;;;;;;2.10;2.00;;;;;;;;;;6215247;23;20072;-73
2022/02/12 18:39:24;;;;;;;4.00;3.15;;;;;;;;;;6243011;23;20016;-72
2022/02/12 18:41:51;;;;;;;6.88;2.40;;;;;;;;;;6241729;23;20079;-72
2022/02/12 18:44:16;;;;;;;2.83;2.28;;;;;;;;;;6241991;23;20024;-71
2022/02/12 18:46:42;;;;;;;4.03;3.05;;;;;;;;;;6241979;23;20014;-71
2022/02/12 18:49:10;;;;;;;3.10;2.80;;;;;;;;;;6242263;23;20008;-71
2022/02/12 18:51:36;;;;;;;2.63;2.42;;;;;;;;;;6240823;23;20174;-72
2022/02/12 18:54:04;;;;;;;3.20;2.90;;;;;;;;;;6241378;23;20436;-71
2022/02/12 18:56:29;;;;;;;2.90;1.88;;;;;;;;;;6212788;23;20468;-71
2022/02/12 18:58:55;;;;;;;4.18;3.03;;;;;;;;;;6240420;23;20107;-71